createdAt,value
2023-12-30T00:00:18.790Z,9.418255
2023-12-30T00:01:14.494Z,9.418297
2023-12-30T00:02:13.482Z,9.418292
2023-12-30T00:03:13.708Z,9.418203
2023-12-30T00:04:13.552Z,9.418130
2023-12-30T00:05:13.480Z,9.418167
2023-12-30T00:06:13.455Z,9.418209
2023-12-30T00:07:13.507Z,9.418360
2023-12-30T00:08:13.443Z,9.418386
2023-12-30T00:09:13.410Z,9.418319
2023-12-30T00:10:14.501Z,9.418348
2023-12-30T00:11:13.389Z,9.418252
2023-12-30T00:12:13.388Z,9.418310
2023-12-30T00:13:13.402Z,9.418381
2023-12-30T00:14:13.394Z,9.418289
2023-12-30T00:15:13.372Z,9.418339
2023-12-30T00:16:13.384Z,9.418505
2023-12-30T00:17:13.349Z,9.418457
2023-12-30T00:18:13.430Z,9.418570
2023-12-30T00:19:13.407Z,9.418266
2023-12-30T00:20:13.362Z,9.418143
2023-12-30T00:21:13.377Z,9.418167
2023-12-30T00:22:13.347Z,9.418447
2023-12-30T00:23:13.313Z,9.418954
2023-12-30T00:24:13.333Z,9.418678
2023-12-30T00:25:13.337Z,9.418379
2023-12-30T00:26:13.296Z,9.418469
2023-12-30T00:27:13.284Z,9.418365
2023-12-30T00:28:13.310Z,9.418529
2023-12-30T00:29:13.427Z,9.418454
2023-12-30T00:30:13.356Z,9.418386
2023-12-30T00:31:13.303Z,9.418434
2023-12-30T00:32:13.276Z,9.418458
2023-12-30T00:33:13.319Z,9.418392
2023-12-30T00:34:13.483Z,9.418534
2023-12-30T00:35:13.258Z,9.418419
2023-12-30T00:36:13.236Z,9.418397
2023-12-30T00:37:13.228Z,9.418653
2023-12-30T00:38:14.267Z,9.418528
2023-12-30T00:39:13.202Z,9.418552
2023-12-30T00:40:13.255Z,9.418474
2023-12-30T00:41:13.209Z,9.418449
2023-12-30T00:42:13.177Z,9.418409
2023-12-30T00:43:13.195Z,9.418431
2023-12-30T00:44:13.155Z,9.418555
2023-12-30T00:45:13.260Z,9.418531
2023-12-30T00:46:13.189Z,9.418493
2023-12-30T00:47:13.157Z,9.418466
2023-12-30T00:48:13.234Z,9.418424
2023-12-30T00:49:13.221Z,9.418493
2023-12-30T00:50:13.988Z,9.418479
2023-12-30T00:51:13.148Z,9.418568
2023-12-30T00:52:13.205Z,9.418488
2023-12-30T00:53:13.091Z,9.418455
2023-12-30T00:54:13.096Z,9.418409
2023-12-30T00:55:13.121Z,9.418425
2023-12-30T00:56:13.075Z,9.418347
2023-12-30T00:57:13.089Z,9.418334
2023-12-30T00:58:13.106Z,9.418380
2023-12-30T00:59:13.064Z,9.418403
2023-12-30T01:00:13.063Z,9.418382
2023-12-30T01:01:13.135Z,9.418475
2023-12-30T01:02:13.058Z,9.418488
2023-12-30T01:03:13.051Z,9.418503
2023-12-30T01:04:13.043Z,9.418462
2023-12-30T01:05:13.076Z,9.418381
2023-12-30T01:06:13.023Z,9.418339
2023-12-30T01:07:13.065Z,9.418319
2023-12-30T01:08:13.060Z,9.418340
2023-12-30T01:09:13.007Z,9.418404
2023-12-30T01:10:13.007Z,9.418460
2023-12-30T01:11:12.983Z,9.418468
2023-12-30T01:12:13.977Z,9.418447
2023-12-30T01:13:12.990Z,9.418429
2023-12-30T01:14:12.955Z,9.418332
2023-12-30T01:15:13.010Z,9.418316
2023-12-30T01:16:12.954Z,9.418373
2023-12-30T01:17:12.956Z,9.418339
2023-12-30T01:18:12.980Z,9.418368
2023-12-30T01:19:13.123Z,9.418348
2023-12-30T01:20:12.930Z,9.418328
2023-12-30T01:21:12.938Z,9.418406
2023-12-30T01:22:12.928Z,9.418451
2023-12-30T01:23:12.896Z,9.418409
2023-12-30T01:24:12.902Z,9.418375
2023-12-30T01:25:12.887Z,9.418336
2023-12-30T01:26:12.905Z,9.418279
2023-12-30T01:27:12.870Z,9.418274
2023-12-30T01:28:13.001Z,9.418391
2023-12-30T01:29:13.481Z,9.418450
2023-12-30T01:30:12.886Z,9.418415
2023-12-30T01:31:12.910Z,9.418451
2023-12-30T01:32:12.848Z,9.418432
2023-12-30T01:33:12.882Z,9.418348
2023-12-30T01:34:12.972Z,9.418368
2023-12-30T01:35:12.808Z,9.418505
2023-12-30T01:36:12.815Z,9.418436
2023-12-30T01:37:12.853Z,9.418287
2023-12-30T01:38:12.825Z,9.418394
2023-12-30T01:39:12.874Z,9.418309
2023-12-30T01:40:12.804Z,9.418298
2023-12-30T01:41:12.763Z,9.418400
2023-12-30T01:42:12.750Z,9.418342
2023-12-30T01:43:12.853Z,9.418309
2023-12-30T01:44:12.741Z,9.418271
2023-12-30T01:45:12.742Z,9.418253
2023-12-30T01:46:12.779Z,9.418220
2023-12-30T01:47:12.741Z,9.418485
2023-12-30T01:48:12.756Z,9.418326
2023-12-30T01:49:12.704Z,9.418299
2023-12-30T01:50:12.712Z,9.418318
2023-12-30T01:51:24.265Z,9.418275
2023-12-30T01:52:13.749Z,9.418312
2023-12-30T01:53:12.730Z,9.418242
2023-12-30T01:54:12.696Z,9.418364
2023-12-30T01:55:12.692Z,9.418289
2023-12-30T01:56:12.660Z,9.418318
2023-12-30T01:57:12.656Z,9.418352
2023-12-30T01:58:12.699Z,9.418283
2023-12-30T01:59:12.677Z,9.418291
2023-12-30T02:00:12.632Z,9.418328
2023-12-30T02:01:12.697Z,9.418316
2023-12-30T02:02:12.690Z,9.418376
2023-12-30T02:03:12.639Z,9.418367
2023-12-30T02:04:12.683Z,9.418444
2023-12-30T02:05:14.247Z,9.418481
2023-12-30T02:06:12.607Z,9.418462
2023-12-30T02:07:12.592Z,9.418400
2023-12-30T02:08:12.581Z,9.418293
2023-12-30T02:09:12.585Z,9.418395
2023-12-30T02:10:12.606Z,9.418404
2023-12-30T02:11:12.576Z,9.418244
2023-12-30T02:12:12.586Z,9.418221
2023-12-30T02:13:12.599Z,9.418332
2023-12-30T02:14:12.546Z,9.418332
2023-12-30T02:15:12.537Z,9.418284
2023-12-30T02:16:12.606Z,9.418299
2023-12-30T02:17:12.645Z,9.418342
2023-12-30T02:18:12.597Z,9.418317
2023-12-30T02:19:12.524Z,9.418411
2023-12-30T02:20:12.510Z,9.418440
2023-12-30T02:21:12.509Z,9.418394
2023-12-30T02:22:12.505Z,9.418404
2023-12-30T02:23:12.479Z,9.418357
2023-12-30T02:24:12.479Z,9.418345
2023-12-30T02:25:12.585Z,9.418327
2023-12-30T02:26:12.459Z,9.418319
2023-12-30T02:27:12.458Z,9.418354
2023-12-30T02:28:12.471Z,9.418402
2023-12-30T02:29:12.441Z,9.418385
2023-12-30T02:30:12.492Z,9.418303
2023-12-30T02:31:12.546Z,9.418288
2023-12-30T02:32:12.415Z,9.418337
2023-12-30T02:33:12.519Z,9.418401
2023-12-30T02:34:12.445Z,9.418420
2023-12-30T02:35:12.395Z,9.418453
2023-12-30T02:36:12.449Z,9.418372
2023-12-30T02:37:12.433Z,9.418329
2023-12-30T02:38:12.397Z,9.418422
2023-12-30T02:39:12.377Z,9.418369
2023-12-30T02:40:12.423Z,9.418313
2023-12-30T02:41:12.352Z,9.418447
2023-12-30T02:42:12.367Z,9.418390
2023-12-30T02:43:12.395Z,9.418388
2023-12-30T02:44:12.343Z,9.418187
2023-12-30T02:45:12.366Z,9.418182
2023-12-30T02:46:12.329Z,9.418302
2023-12-30T02:47:12.346Z,9.418386
2023-12-30T02:48:12.427Z,9.418203
2023-12-30T02:49:12.392Z,9.418271
2023-12-30T02:50:12.300Z,9.418276
2023-12-30T02:51:12.281Z,9.418283
2023-12-30T02:52:12.334Z,9.418334
2023-12-30T02:53:12.334Z,9.418154
2023-12-30T02:54:12.274Z,9.418263
2023-12-30T02:55:12.398Z,9.418240
2023-12-30T02:56:12.253Z,9.418157
2023-12-30T02:57:12.377Z,9.418246
2023-12-30T02:58:12.283Z,9.418408
2023-12-30T02:59:12.248Z,9.418454
2023-12-30T03:00:12.223Z,9.418293
2023-12-30T03:01:12.305Z,9.418331
2023-12-30T03:02:13.219Z,9.418195
2023-12-30T03:03:12.269Z,9.418060
2023-12-30T03:04:12.284Z,9.418128
2023-12-30T03:05:12.338Z,9.418141
2023-12-30T03:06:12.286Z,9.418219
2023-12-30T03:07:12.197Z,9.418377
2023-12-30T03:08:12.180Z,9.418322
2023-12-30T03:09:12.240Z,9.418233
2023-12-30T03:10:12.216Z,9.418112
2023-12-30T03:11:12.231Z,9.418132
2023-12-30T03:12:12.144Z,9.418075
2023-12-30T03:13:12.196Z,9.418258
2023-12-30T03:14:12.145Z,9.418140
2023-12-30T03:15:12.140Z,9.418207
2023-12-30T03:16:12.184Z,9.418231
2023-12-30T03:17:12.121Z,9.418156
2023-12-30T03:18:12.208Z,9.418141
2023-12-30T03:19:12.262Z,9.418235
2023-12-30T03:20:12.120Z,9.418310
2023-12-30T03:21:12.090Z,9.418325
2023-12-30T03:22:12.141Z,9.418450
2023-12-30T03:23:12.075Z,9.418406
2023-12-30T03:24:12.072Z,9.418396
2023-12-30T03:25:12.132Z,9.418543
2023-12-30T03:26:12.113Z,9.418345
2023-12-30T03:27:12.065Z,9.418296
2023-12-30T03:28:12.119Z,9.418349
2023-12-30T03:29:12.059Z,9.418344
2023-12-30T03:30:12.091Z,9.418404
2023-12-30T03:31:12.068Z,9.418314
2023-12-30T03:32:12.074Z,9.418201
2023-12-30T03:33:12.084Z,9.418315
2023-12-30T03:34:12.085Z,9.418390
2023-12-30T03:35:12.011Z,9.418438
2023-12-30T03:36:12.029Z,9.418447
2023-12-30T03:37:12.109Z,9.418380
2023-12-30T03:38:11.987Z,9.418319
2023-12-30T03:39:12.002Z,9.418147
2023-12-30T03:40:12.008Z,9.418256
2023-12-30T03:41:12.002Z,9.418274
2023-12-30T03:42:11.939Z,9.418174
2023-12-30T03:43:12.030Z,9.418118
2023-12-30T03:44:11.968Z,9.418175
2023-12-30T03:45:11.938Z,9.418260
2023-12-30T03:46:11.992Z,9.418341
2023-12-30T03:47:11.933Z,9.418386
2023-12-30T03:48:12.965Z,9.418324
2023-12-30T03:49:12.010Z,9.418336
2023-12-30T03:50:11.929Z,9.418310
2023-12-30T03:51:11.898Z,9.418386
2023-12-30T03:52:11.909Z,9.418291
2023-12-30T03:53:11.888Z,9.418316
2023-12-30T03:54:11.903Z,9.418283
2023-12-30T03:55:11.911Z,9.418286
2023-12-30T03:56:11.856Z,9.418240
2023-12-30T03:57:11.854Z,9.418229
2023-12-30T03:58:11.866Z,9.418246
2023-12-30T03:59:11.859Z,9.418258
2023-12-30T04:00:11.881Z,9.418307
2023-12-30T04:01:11.934Z,9.418318
2023-12-30T04:02:11.827Z,9.418344
2023-12-30T04:03:11.910Z,9.418263
2023-12-30T04:04:11.869Z,9.418337
2023-12-30T04:05:11.880Z,9.418434
2023-12-30T04:06:11.798Z,9.418315
2023-12-30T04:07:11.819Z,9.418371
2023-12-30T04:08:11.770Z,9.418348
2023-12-30T04:09:11.775Z,9.418466
2023-12-30T04:10:11.779Z,9.418334
2023-12-30T04:11:11.774Z,9.418489
2023-12-30T04:12:11.755Z,9.418513
2023-12-30T04:13:11.961Z,9.418402
2023-12-30T04:14:11.762Z,9.418228
2023-12-30T04:15:11.740Z,9.418304
2023-12-30T04:16:11.753Z,9.418165
2023-12-30T04:17:11.735Z,9.418326
2023-12-30T04:18:11.759Z,9.418331
2023-12-30T04:19:11.821Z,9.418317
2023-12-30T04:20:11.680Z,9.418283
2023-12-30T04:21:11.686Z,9.418311
2023-12-30T04:22:11.719Z,9.418239
2023-12-30T04:23:11.688Z,9.418254
2023-12-30T04:24:11.664Z,9.418319
2023-12-30T04:25:11.719Z,9.418163
2023-12-30T04:26:11.657Z,9.418320
2023-12-30T04:27:11.636Z,9.418272
2023-12-30T04:28:11.692Z,9.418324
2023-12-30T04:29:11.634Z,9.418348
2023-12-30T04:30:11.641Z,9.418348
2023-12-30T04:31:11.692Z,9.418374
2023-12-30T04:32:11.684Z,9.418420
2023-12-30T04:33:11.684Z,9.418734
2023-12-30T04:34:11.715Z,9.418479
2023-12-30T04:35:11.612Z,9.418408
2023-12-30T04:36:11.584Z,9.418414
2023-12-30T04:37:11.590Z,9.418528
2023-12-30T04:38:12.566Z,9.418642
2023-12-30T04:39:11.590Z,9.418399
2023-12-30T04:40:11.625Z,9.418745
2023-12-30T04:41:11.552Z,9.418563
2023-12-30T04:42:11.547Z,9.418594
2023-12-30T04:43:11.580Z,9.418450
2023-12-30T04:44:11.527Z,9.418303
2023-12-30T04:45:11.555Z,9.418328
2023-12-30T04:46:11.568Z,9.418279
2023-12-30T04:47:11.516Z,9.418440
2023-12-30T04:48:11.555Z,9.418517
2023-12-30T04:49:11.565Z,9.418406
2023-12-30T04:50:11.498Z,9.418290
2023-12-30T04:51:11.543Z,9.418296
2023-12-30T04:52:11.556Z,9.418148
2023-12-30T04:53:11.485Z,9.418285
2023-12-30T04:54:11.481Z,9.418344
2023-12-30T04:55:11.546Z,9.418470
2023-12-30T04:56:11.463Z,9.418493
2023-12-30T04:57:11.554Z,9.418538
2023-12-30T04:58:11.492Z,9.418558
2023-12-30T04:59:11.471Z,9.418459
2023-12-30T05:00:11.430Z,9.418483
2023-12-30T05:01:11.492Z,9.418541
2023-12-30T05:02:12.460Z,9.418444
2023-12-30T05:03:11.426Z,9.418294
2023-12-30T05:04:11.472Z,9.418370
2023-12-30T05:05:11.428Z,9.418327
2023-12-30T05:06:11.400Z,9.418296
2023-12-30T05:07:11.403Z,9.418288
2023-12-30T05:08:11.430Z,9.418399
2023-12-30T05:09:11.411Z,9.418246
2023-12-30T05:10:11.445Z,9.418303
2023-12-30T05:11:11.355Z,9.418307
2023-12-30T05:12:11.354Z,9.418232
2023-12-30T05:13:11.413Z,9.418288
2023-12-30T05:14:11.393Z,9.418309
2023-12-30T05:15:11.334Z,9.418383
2023-12-30T05:16:11.360Z,9.418367
2023-12-30T05:17:11.334Z,9.418397
2023-12-30T05:18:11.426Z,9.418425
2023-12-30T05:19:11.420Z,9.418382
2023-12-30T05:20:11.313Z,9.418289
2023-12-30T05:21:11.300Z,9.418334
2023-12-30T05:22:11.314Z,9.418363
2023-12-30T05:23:11.327Z,9.418428
2023-12-30T05:24:11.286Z,9.418359
2023-12-30T05:25:11.307Z,9.418356
2023-12-30T05:26:11.276Z,9.418436
2023-12-30T05:27:11.263Z,9.418420
2023-12-30T05:28:11.278Z,9.418390
2023-12-30T05:29:11.257Z,9.418415
2023-12-30T05:30:11.314Z,9.418426
2023-12-30T05:31:11.421Z,9.418354
2023-12-30T05:32:11.230Z,9.418318
2023-12-30T05:33:11.338Z,9.418336
2023-12-30T05:34:11.319Z,9.418348
2023-12-30T05:35:11.248Z,9.418232
2023-12-30T05:36:11.215Z,9.418322
2023-12-30T05:37:11.249Z,9.418398
2023-12-30T05:38:11.191Z,9.418412
2023-12-30T05:39:11.187Z,9.418377
2023-12-30T05:40:11.200Z,9.418317
2023-12-30T05:41:11.185Z,9.418305
2023-12-30T05:42:11.171Z,9.418220
2023-12-30T05:43:11.203Z,9.418171
2023-12-30T05:44:11.156Z,9.418203
2023-12-30T05:45:11.151Z,9.418283
2023-12-30T05:46:11.185Z,9.418121
2023-12-30T05:47:11.152Z,9.418201
2023-12-30T05:48:11.238Z,9.418179
2023-12-30T05:49:11.194Z,9.418203
2023-12-30T05:50:11.102Z,9.418225
2023-12-30T05:51:11.102Z,9.418278
2023-12-30T05:52:11.140Z,9.418235
2023-12-30T05:53:11.094Z,9.418186
2023-12-30T05:54:11.085Z,9.418256
2023-12-30T05:55:11.095Z,9.418271
2023-12-30T05:56:11.156Z,9.418184
2023-12-30T05:57:11.064Z,9.418100
2023-12-30T05:58:11.090Z,9.418227
2023-12-30T05:59:11.057Z,9.418158
2023-12-30T06:00:11.053Z,9.418225
2023-12-30T06:01:11.138Z,9.418318
2023-12-30T06:02:11.039Z,9.418262
2023-12-30T06:03:11.065Z,9.418274
2023-12-30T06:04:11.067Z,9.418272
2023-12-30T06:05:11.026Z,9.418252
2023-12-30T06:06:11.074Z,9.418199
2023-12-30T06:07:11.048Z,9.418210
2023-12-30T06:08:10.996Z,9.418188
2023-12-30T06:09:10.988Z,9.418131
2023-12-30T06:10:11.068Z,9.418108
2023-12-30T06:11:10.982Z,9.418075
2023-12-30T06:12:10.983Z,9.418131
2023-12-30T06:13:10.986Z,9.418182
2023-12-30T06:14:10.965Z,9.418201
2023-12-30T06:15:10.945Z,9.418173
2023-12-30T06:16:10.991Z,9.418162
2023-12-30T06:17:10.933Z,9.418180
2023-12-30T06:18:10.988Z,9.418166
2023-12-30T06:19:12.908Z,9.418117
2023-12-30T06:20:10.937Z,9.418200
2023-12-30T06:21:10.915Z,9.418164
2023-12-30T06:22:10.931Z,9.418181
2023-12-30T06:23:10.908Z,9.418380
2023-12-30T06:24:10.971Z,9.418399
2023-12-30T06:25:11.009Z,9.418372
2023-12-30T06:26:10.879Z,9.418247
2023-12-30T06:27:10.871Z,9.418338
2023-12-30T06:28:10.929Z,9.418386
2023-12-30T06:29:10.898Z,9.418225
2023-12-30T06:30:10.910Z,9.417991
2023-12-30T06:31:10.884Z,9.418092
2023-12-30T06:32:10.862Z,9.418121
2023-12-30T06:33:10.895Z,9.417997
2023-12-30T06:34:10.871Z,9.418351
2023-12-30T06:35:10.821Z,9.418167
2023-12-30T06:36:10.806Z,9.418106
2023-12-30T06:37:10.954Z,9.418063
2023-12-30T06:38:10.840Z,9.418293
2023-12-30T06:39:10.815Z,9.418324
2023-12-30T06:40:10.821Z,9.418242
2023-12-30T06:41:10.808Z,9.418121
2023-12-30T06:42:10.783Z,9.417968
2023-12-30T06:43:10.938Z,9.418245
2023-12-30T06:44:10.783Z,9.418123
2023-12-30T06:45:10.769Z,9.418049
2023-12-30T06:46:10.772Z,9.418027
2023-12-30T06:47:10.732Z,9.418119
2023-12-30T06:48:10.808Z,9.418118
2023-12-30T06:49:10.986Z,9.418052
2023-12-30T06:50:10.723Z,9.418099
2023-12-30T06:51:10.725Z,9.418178
2023-12-30T06:52:10.750Z,9.418237
2023-12-30T06:53:10.698Z,9.418262
2023-12-30T06:54:10.704Z,9.418303
2023-12-30T06:55:18.684Z,9.418514
2023-12-30T06:56:11.703Z,9.418332
2023-12-30T06:57:10.690Z,9.418330
2023-12-30T06:58:10.690Z,9.418366
2023-12-30T06:59:12.753Z,9.418376
2023-12-30T07:00:11.812Z,9.418386
2023-12-30T07:01:10.762Z,9.418671
2023-12-30T07:02:10.628Z,9.418509
2023-12-30T07:03:10.640Z,9.418591
2023-12-30T07:04:10.704Z,9.418544
2023-12-30T07:05:10.675Z,9.418492
2023-12-30T07:06:10.609Z,9.418336
2023-12-30T07:07:10.652Z,9.418357
2023-12-30T07:08:10.617Z,9.418046
2023-12-30T07:09:10.587Z,9.417985
2023-12-30T07:10:10.627Z,9.418239
2023-12-30T07:11:10.577Z,9.418208
2023-12-30T07:12:10.718Z,9.418237
2023-12-30T07:13:10.699Z,9.418264
2023-12-30T07:14:10.573Z,9.418290
2023-12-30T07:15:10.665Z,9.418146
2023-12-30T07:16:10.659Z,9.418115
2023-12-30T07:17:10.538Z,9.418249
2023-12-30T07:18:10.708Z,9.418193
2023-12-30T07:19:10.714Z,9.418005
2023-12-30T07:20:10.576Z,9.418116
2023-12-30T07:21:10.532Z,9.418159
2023-12-30T07:22:10.515Z,9.418242
2023-12-30T07:23:10.552Z,9.418262
2023-12-30T07:24:10.497Z,9.418250
2023-12-30T07:25:10.499Z,9.418292
2023-12-30T07:26:10.494Z,9.418253
2023-12-30T07:27:10.469Z,9.418167
2023-12-30T07:28:10.497Z,9.418352
2023-12-30T07:29:10.523Z,9.418186
2023-12-30T07:30:10.489Z,9.418106
2023-12-30T07:31:10.507Z,9.417594
2023-12-30T07:32:10.473Z,9.418101
2023-12-30T07:33:10.505Z,9.418273
2023-12-30T07:34:10.509Z,9.418266
2023-12-30T07:35:10.455Z,9.418189
2023-12-30T07:36:10.450Z,9.418175
2023-12-30T07:37:10.455Z,9.418099
2023-12-30T07:38:10.416Z,9.418021
2023-12-30T07:39:10.402Z,9.418005
2023-12-30T07:40:10.451Z,9.418109
2023-12-30T07:41:10.394Z,9.418100
2023-12-30T07:42:10.472Z,9.418098
2023-12-30T07:43:10.438Z,9.418155
2023-12-30T07:44:10.374Z,9.417974
2023-12-30T07:45:10.349Z,9.417986
2023-12-30T07:46:10.442Z,9.417888
2023-12-30T07:47:10.349Z,9.417615
2023-12-30T07:48:10.398Z,9.417271
2023-12-30T07:49:10.385Z,9.417118
2023-12-30T07:50:10.375Z,9.417507
2023-12-30T07:51:10.326Z,9.417736
2023-12-30T07:52:10.437Z,9.418209
2023-12-30T07:53:10.313Z,9.418299
2023-12-30T07:54:10.328Z,9.418322
2023-12-30T07:55:10.295Z,9.418273
2023-12-30T07:56:10.282Z,9.418347
2023-12-30T07:57:10.282Z,9.418373
2023-12-30T07:58:10.399Z,9.418500
2023-12-30T07:59:10.358Z,9.418274
2023-12-30T08:00:10.277Z,9.418412
2023-12-30T08:01:10.322Z,9.418251
2023-12-30T08:02:10.348Z,9.418351
2023-12-30T08:03:10.265Z,9.418398
2023-12-30T08:04:10.300Z,9.418396
2023-12-30T08:05:10.418Z,9.418347
2023-12-30T08:06:10.250Z,9.418364
2023-12-30T08:07:10.258Z,9.418272
2023-12-30T08:08:10.215Z,9.418331
2023-12-30T08:09:10.222Z,9.418302
2023-12-30T08:10:10.248Z,9.418342
2023-12-30T08:11:10.211Z,9.418430
2023-12-30T08:12:10.272Z,9.418352
2023-12-30T08:13:10.226Z,9.418488
2023-12-30T08:14:10.204Z,9.418433
2023-12-30T08:15:10.180Z,9.418378
2023-12-30T08:16:10.955Z,9.418345
2023-12-30T08:17:10.428Z,9.418344
2023-12-30T08:18:10.237Z,9.418346
2023-12-30T08:19:10.154Z,9.418535
2023-12-30T08:20:10.265Z,9.418345
2023-12-30T08:21:10.138Z,9.418360
2023-12-30T08:22:10.141Z,9.418298
2023-12-30T08:23:10.151Z,9.418324
2023-12-30T08:24:10.120Z,9.418270
2023-12-30T08:25:10.188Z,9.418246
2023-12-30T08:26:10.097Z,9.418282
2023-12-30T08:27:10.087Z,9.418252
2023-12-30T08:28:10.108Z,9.418309
2023-12-30T08:29:10.095Z,9.418314
2023-12-30T08:30:10.485Z,9.418342
2023-12-30T08:31:10.108Z,9.418222
2023-12-30T08:32:10.066Z,9.418206
2023-12-30T08:33:10.274Z,9.418245
2023-12-30T08:34:10.133Z,9.418350
2023-12-30T08:35:10.057Z,9.418409
2023-12-30T08:36:10.045Z,9.418468
2023-12-30T08:37:10.170Z,9.418454
2023-12-30T08:38:10.020Z,9.418414
2023-12-30T08:39:10.008Z,9.418229
2023-12-30T08:40:10.021Z,9.418272
2023-12-30T08:41:10.050Z,9.418233
2023-12-30T08:42:10.986Z,9.418247
2023-12-30T08:43:10.001Z,9.418263
2023-12-30T08:44:10.065Z,9.418349
2023-12-30T08:45:09.970Z,9.418319
2023-12-30T08:46:10.015Z,9.418298
2023-12-30T08:47:10.308Z,9.418118
2023-12-30T08:48:10.026Z,9.418233
2023-12-30T08:49:11.196Z,9.418176
2023-12-30T08:50:10.016Z,9.418171
2023-12-30T08:51:09.920Z,9.418251
2023-12-30T08:52:09.997Z,9.418434
2023-12-30T08:53:09.946Z,9.418587
2023-12-30T08:54:09.994Z,9.418532
2023-12-30T08:55:09.947Z,9.418602
2023-12-30T08:56:09.896Z,9.418640
2023-12-30T08:57:09.893Z,9.418507
2023-12-30T08:58:09.925Z,9.418447
2023-12-30T08:59:09.945Z,9.418332
2023-12-30T09:00:09.866Z,9.418303
2023-12-30T09:01:09.921Z,9.418387
2023-12-30T09:02:09.877Z,9.418347
2023-12-30T09:03:09.950Z,9.418348
2023-12-30T09:04:09.924Z,9.418338
2023-12-30T09:05:09.827Z,9.418279
2023-12-30T09:06:09.858Z,9.418262
2023-12-30T09:07:09.872Z,9.418275
2023-12-30T09:08:09.825Z,9.418308
2023-12-30T09:09:09.807Z,9.418331
2023-12-30T09:10:09.875Z,9.418278
2023-12-30T09:11:09.798Z,9.418265
2023-12-30T09:12:09.817Z,9.418283
2023-12-30T09:13:09.818Z,9.418324
2023-12-30T09:14:09.782Z,9.418344
2023-12-30T09:15:09.764Z,9.418350
2023-12-30T09:16:09.778Z,9.418344
2023-12-30T09:17:09.815Z,9.418308
2023-12-30T09:18:12.906Z,9.418246
2023-12-30T09:19:11.894Z,9.418307
2023-12-30T09:20:09.783Z,9.418395
2023-12-30T09:21:09.731Z,9.418383
2023-12-30T09:22:09.839Z,9.418291
2023-12-30T09:23:09.725Z,9.418278
2023-12-30T09:24:09.711Z,9.418295
2023-12-30T09:25:09.765Z,9.418244
2023-12-30T09:26:09.729Z,9.418242
2023-12-30T09:27:09.692Z,9.418275
2023-12-30T09:28:09.729Z,9.418313
2023-12-30T09:29:09.665Z,9.418345
2023-12-30T09:30:09.743Z,9.418352
2023-12-30T09:31:09.789Z,9.418301
2023-12-30T09:32:09.649Z,9.418351
2023-12-30T09:33:12.062Z,9.418287
2023-12-30T09:34:09.701Z,9.418300
2023-12-30T09:35:09.699Z,9.418393
2023-12-30T09:36:09.639Z,9.418453
2023-12-30T09:37:09.692Z,9.418397
2023-12-30T09:38:09.751Z,9.418384
2023-12-30T09:39:09.609Z,9.418153
2023-12-30T09:40:09.676Z,9.418311
2023-12-30T09:41:09.603Z,9.418377
2023-12-30T09:42:09.645Z,9.418226
2023-12-30T09:43:09.604Z,9.417963
2023-12-30T09:44:09.576Z,9.418045
2023-12-30T09:45:09.574Z,9.418196
2023-12-30T09:46:09.590Z,9.418168
2023-12-30T09:47:09.563Z,9.418326
2023-12-30T09:48:09.627Z,9.418402
2023-12-30T09:49:09.581Z,9.418302
2023-12-30T09:50:09.546Z,9.418296
2023-12-30T09:51:09.529Z,9.418295
2023-12-30T09:52:09.563Z,9.418306
2023-12-30T09:53:09.521Z,9.418297
2023-12-30T09:54:09.554Z,9.418314
2023-12-30T09:55:09.577Z,9.418186
2023-12-30T09:56:09.526Z,9.418269
2023-12-30T09:57:09.486Z,9.418296
2023-12-30T09:58:09.479Z,9.418277
2023-12-30T09:59:09.482Z,9.418337
2023-12-30T10:00:09.454Z,9.418237
2023-12-30T10:01:09.586Z,9.418102
2023-12-30T10:02:09.507Z,9.418190
2023-12-30T10:03:09.484Z,9.418329
2023-12-30T10:04:09.551Z,9.418358
2023-12-30T10:05:09.636Z,9.418330
2023-12-30T10:06:09.441Z,9.418121
2023-12-30T10:07:09.504Z,9.418231
2023-12-30T10:08:41.833Z,9.418324
2023-12-30T10:09:09.411Z,9.418787
2023-12-30T10:10:09.432Z,9.418260
2023-12-30T10:11:09.397Z,9.418214
2023-12-30T10:12:09.474Z,9.418199
2023-12-30T10:13:12.637Z,9.418269
2023-12-30T10:14:09.388Z,9.418287
2023-12-30T10:15:09.421Z,9.418326
2023-12-30T10:16:09.382Z,9.418344
2023-12-30T10:17:09.383Z,9.418328
2023-12-30T10:18:09.481Z,9.418319
2023-12-30T10:19:09.438Z,9.418330
2023-12-30T10:20:11.469Z,9.418338
2023-12-30T10:21:09.356Z,9.418464
2023-12-30T10:22:09.349Z,9.418437
2023-12-30T10:23:09.312Z,9.418346
2023-12-30T10:24:09.312Z,9.418355
2023-12-30T10:25:09.355Z,9.418334
2023-12-30T10:26:09.329Z,9.418265
2023-12-30T10:27:09.319Z,9.418253
2023-12-30T10:28:09.302Z,9.418189
2023-12-30T10:29:09.280Z,9.418295
2023-12-30T10:30:09.340Z,9.418357
2023-12-30T10:31:09.400Z,9.418420
2023-12-30T10:32:09.255Z,9.418243
2023-12-30T10:33:09.480Z,9.418248
2023-12-30T10:34:09.434Z,9.418271
2023-12-30T10:35:09.248Z,9.418218
2023-12-30T10:36:09.271Z,9.418315
2023-12-30T10:37:09.284Z,9.418290
2023-12-30T10:38:09.228Z,9.418228
2023-12-30T10:39:09.221Z,9.418275
2023-12-30T10:40:09.226Z,9.418285
2023-12-30T10:41:09.195Z,9.418226
2023-12-30T10:42:09.206Z,9.418322
2023-12-30T10:43:09.893Z,9.418456
2023-12-30T10:44:09.249Z,9.418300
2023-12-30T10:45:09.180Z,9.418295
2023-12-30T10:46:09.225Z,9.418313
2023-12-30T10:47:09.342Z,9.418359
2023-12-30T10:48:09.718Z,9.418336
2023-12-30T10:49:09.270Z,9.418379
2023-12-30T10:50:09.236Z,9.418417
2023-12-30T10:51:09.514Z,9.418300
2023-12-30T10:52:09.142Z,9.418282
2023-12-30T10:53:09.158Z,9.418305
2023-12-30T10:54:10.117Z,9.418339
2023-12-30T10:55:09.214Z,9.418280
2023-12-30T10:56:09.109Z,9.418260
2023-12-30T10:57:09.083Z,9.418270
2023-12-30T10:58:09.110Z,9.418287
2023-12-30T10:59:09.102Z,9.418263
2023-12-30T11:00:09.153Z,9.418305
2023-12-30T11:01:09.095Z,9.418364
2023-12-30T11:02:09.090Z,9.418313
2023-12-30T11:03:09.100Z,9.418327
2023-12-30T11:04:09.133Z,9.418325
2023-12-30T11:05:09.583Z,9.418336
2023-12-30T11:06:09.154Z,9.418307
2023-12-30T11:07:09.058Z,9.418351
2023-12-30T11:08:09.043Z,9.418288
2023-12-30T11:09:09.105Z,9.418331
2023-12-30T11:10:09.035Z,9.418322
2023-12-30T11:11:09.091Z,9.418233
2023-12-30T11:12:08.976Z,9.418283
2023-12-30T11:13:09.549Z,9.418267
2023-12-30T11:14:08.983Z,9.418301
2023-12-30T11:15:08.969Z,9.418306
2023-12-30T11:16:08.993Z,9.418323
2023-12-30T11:17:08.968Z,9.418241
2023-12-30T11:18:09.030Z,9.418193
2023-12-30T11:19:09.018Z,9.418270
2023-12-30T11:20:08.977Z,9.418290
2023-12-30T11:21:09.114Z,9.418279
2023-12-30T11:22:08.968Z,9.418320
2023-12-30T11:23:08.908Z,9.418389
2023-12-30T11:24:08.935Z,9.418372
2023-12-30T11:25:09.036Z,9.418318
2023-12-30T11:26:08.888Z,9.418356
2023-12-30T11:27:08.877Z,9.418322
2023-12-30T11:28:08.899Z,9.418324
2023-12-30T11:29:08.891Z,9.418360
2023-12-30T11:30:08.915Z,9.418269
2023-12-30T11:31:08.885Z,9.418290
2023-12-30T11:32:09.294Z,9.418289
2023-12-30T11:33:08.926Z,9.418341
2023-12-30T11:34:08.903Z,9.418312
2023-12-30T11:35:08.878Z,9.418342
2023-12-30T11:36:08.814Z,9.418226
2023-12-30T11:37:08.841Z,9.418180
2023-12-30T11:38:08.886Z,9.418165
2023-12-30T11:39:08.801Z,9.418229
2023-12-30T11:40:08.882Z,9.418223
2023-12-30T11:41:08.876Z,9.418246
2023-12-30T11:42:08.821Z,9.418238
2023-12-30T11:43:08.830Z,9.418247
2023-12-30T11:44:08.776Z,9.418278